Time;durP1;ratioP1;P1;durP2;ratioP2;P2;SDS_P1;SDS_P2;PMS_P1;PMS_P2;Temp;Humidity;BMP_temperature;BMP_pressure;BME280_temperature;BME280_humidity;BME280_pressure;Samples;Min_cycle;Max_cycle;Signal;HPM_P1;HPM_P2
2023/04/09 00:02:13;;;;;;;131.07;79.57;;;;;;;;;;5064417;28;20513;-81
2023/04/09 00:04:39;;;;;;;132.35;77.57;;;;;;;;;;5062031;28;20427;-81
2023/04/09 00:07:06;;;;;;;128.68;79.43;;;;;;;;;;5046502;28;20428;-81
2023/04/09 00:09:32;;;;;;;136.52;81.78;;;;;;;;;;5061610;28;20416;-81
2023/04/09 00:11:58;;;;;;;139.63;81.63;;;;;;;;;;5042743;28;20431;-81
2023/04/09 00:14:25;;;;;;;142.75;85.65;;;;;;;;;;5066283;28;20415;-81
2023/04/09 00:16:53;;;;;;;137.02;83.70;;;;;;;;;;5059251;28;20417;-81
2023/04/09 00:19:19;;;;;;;137.90;82.60;;;;;;;;;;5043382;28;20427;-81
2023/04/09 00:21:47;;;;;;;145.45;86.82;;;;;;;;;;5043624;28;20429;-81
2023/04/09 00:24:13;;;;;;;149.18;84.97;;;;;;;;;;5040885;28;20457;-82
2023/04/09 00:26:40;;;;;;;135.50;82.85;;;;;;;;;;5062009;28;20427;-81
2023/04/09 00:29:06;;;;;;;135.45;83.55;;;;;;;;;;5061169;28;20797;-81
2023/04/09 00:31:32;;;;;;;143.57;82.55;;;;;;;;;;5066063;28;20435;-81
2023/04/09 00:34:00;;;;;;;152.23;85.72;;;;;;;;;;5061227;28;20424;-81
2023/04/09 00:36:26;;;;;;;133.15;81.50;;;;;;;;;;5061219;28;20424;-81
2023/04/09 00:38:53;;;;;;;143.70;79.45;;;;;;;;;;5061693;28;20769;-81
2023/04/09 00:41:19;;;;;;;145.43;81.82;;;;;;;;;;5061952;28;20998;-79
2023/04/09 00:43:46;;;;;;;150.93;85.28;;;;;;;;;;5062108;28;20431;-81
2023/04/09 00:46:12;;;;;;;145.65;83.28;;;;;;;;;;5062011;28;20428;-81
2023/04/09 00:48:39;;;;;;;136.20;82.07;;;;;;;;;;5059099;28;20430;-79
2023/04/09 00:51:07;;;;;;;148.53;83.83;;;;;;;;;;5060506;28;20434;-80
2023/04/09 00:53:34;;;;;;;141.27;82.32;;;;;;;;;;5059377;28;20427;-81
2023/04/09 00:56:01;;;;;;;138.10;82.05;;;;;;;;;;5060918;28;20431;-81
2023/04/09 00:58:27;;;;;;;138.10;81.90;;;;;;;;;;5058692;28;20478;-81
2023/04/09 01:00:54;;;;;;;144.95;85.32;;;;;;;;;;5064561;28;20425;-82
2023/04/09 01:03:21;;;;;;;135.65;82.07;;;;;;;;;;5059826;28;20935;-80
2023/04/09 01:05:52;;;;;;;141.55;82.05;;;;;;;;;;5062148;28;20433;-80
2023/04/09 01:08:27;;;;;;;147.67;84.60;;;;;;;;;;5064542;28;20401;-80
2023/04/09 01:10:58;;;;;;;136.82;81.28;;;;;;;;;;5064740;28;20430;-80
2023/04/09 01:13:30;;;;;;;135.68;79.03;;;;;;;;;;5060716;28;20416;-80
2023/04/09 01:15:59;;;;;;;136.80;80.30;;;;;;;;;;5060278;28;20503;-82
2023/04/09 01:18:29;;;;;;;140.65;80.70;;;;;;;;;;5059206;28;20420;-81
2023/04/09 01:20:59;;;;;;;132.55;78.60;;;;;;;;;;5061689;28;20420;-82
2023/04/09 01:23:29;;;;;;;129.75;76.38;;;;;;;;;;5060668;28;20444;-82
2023/04/09 01:26:02;;;;;;;131.32;76.85;;;;;;;;;;5066036;28;20423;-81
2023/04/09 01:28:35;;;;;;;130.13;74.80;;;;;;;;;;5057342;28;20425;-81
2023/04/09 01:31:04;;;;;;;132.23;77.43;;;;;;;;;;5064048;28;20775;-82
2023/04/09 01:33:31;;;;;;;129.90;78.40;;;;;;;;;;5062360;28;20436;-81
2023/04/09 01:35:57;;;;;;;129.02;75.45;;;;;;;;;;5062615;28;21148;-80
2023/04/09 01:38:25;;;;;;;128.52;72.32;;;;;;;;;;5050257;28;20484;-80
2023/04/09 01:40:52;;;;;;;120.73;71.27;;;;;;;;;;5046339;28;20431;-82
2023/04/09 01:43:19;;;;;;;116.30;67.28;;;;;;;;;;5061921;28;20431;-82
2023/04/09 01:45:48;;;;;;;121.33;68.93;;;;;;;;;;5064622;28;20476;-82
2023/04/09 01:48:15;;;;;;;117.35;66.68;;;;;;;;;;5062301;28;20436;-82
2023/04/09 01:50:42;;;;;;;114.25;67.65;;;;;;;;;;5043848;28;20949;-81
2023/04/09 01:53:08;;;;;;;116.30;66.20;;;;;;;;;;5063777;28;20427;-80
2023/04/09 01:55:34;;;;;;;118.32;65.88;;;;;;;;;;5063710;28;20420;-80
2023/04/09 01:58:01;;;;;;;119.63;65.60;;;;;;;;;;5063679;28;20419;-80
2023/04/09 02:00:40;;;;;;;117.28;68.22;;;;;;;;;;5061942;28;20432;-80
2023/04/09 02:03:10;;;;;;;117.95;65.10;;;;;;;;;;5062154;28;20417;-80
2023/04/09 02:05:38;;;;;;;106.18;63.20;;;;;;;;;;5062939;28;21007;-81
2023/04/09 02:08:05;;;;;;;110.95;64.53;;;;;;;;;;5064347;28;20438;-81
2023/04/09 02:10:34;;;;;;;110.10;64.10;;;;;;;;;;5062311;28;20422;-82
2023/04/09 02:13:03;;;;;;;111.47;64.57;;;;;;;;;;5061496;28;21054;-80
2023/04/09 02:15:31;;;;;;;109.47;66.10;;;;;;;;;;5063277;28;20435;-80
2023/04/09 02:17:57;;;;;;;108.13;61.55;;;;;;;;;;5063265;28;20412;-79
2023/04/09 02:20:25;;;;;;;109.55;62.20;;;;;;;;;;5064028;28;20433;-80
2023/04/09 02:22:51;;;;;;;104.75;60.38;;;;;;;;;;5061217;28;20445;-80
2023/04/09 02:25:18;;;;;;;106.07;61.90;;;;;;;;;;5062853;28;20431;-82
2023/04/09 02:27:44;;;;;;;106.93;59.42;;;;;;;;;;5065621;28;20439;-80
2023/04/09 02:30:11;;;;;;;108.15;61.55;;;;;;;;;;5060982;28;20427;-80
2023/04/09 02:32:37;;;;;;;98.80;58.30;;;;;;;;;;5061900;28;20411;-81
2023/04/09 02:35:04;;;;;;;107.88;60.53;;;;;;;;;;5030455;28;20404;-82
2023/04/09 02:37:32;;;;;;;101.85;56.55;;;;;;;;;;5058714;28;20427;-80
2023/04/09 02:39:58;;;;;;;104.28;57.65;;;;;;;;;;5061977;28;20430;-81
2023/04/09 02:42:24;;;;;;;95.50;56.63;;;;;;;;;;5064373;28;20423;-80
2023/04/09 02:44:51;;;;;;;111.57;59.28;;;;;;;;;;5062277;28;20427;-81
2023/04/09 02:47:17;;;;;;;101.65;57.83;;;;;;;;;;5056973;28;20437;-81
2023/04/09 02:49:44;;;;;;;98.38;56.55;;;;;;;;;;5057807;28;20433;-81
2023/04/09 02:52:10;;;;;;;94.50;55.60;;;;;;;;;;5059792;28;20909;-80
2023/04/09 02:54:38;;;;;;;107.70;57.80;;;;;;;;;;5062593;28;21005;-80
2023/04/09 02:57:04;;;;;;;102.40;57.90;;;;;;;;;;5065572;28;20408;-80
2023/04/09 02:59:31;;;;;;;94.20;55.40;;;;;;;;;;5067304;28;20424;-80
2023/04/09 03:01:58;;;;;;;95.38;54.58;;;;;;;;;;5062428;28;20465;-79
2023/04/09 03:04:24;;;;;;;92.30;55.10;;;;;;;;;;5048068;28;20467;-81
2023/04/09 03:06:51;;;;;;;101.50;56.13;;;;;;;;;;5065680;28;20428;-81
2023/04/09 03:09:17;;;;;;;94.00;55.17;;;;;;;;;;5068900;28;20425;-81
2023/04/09 03:11:45;;;;;;;96.22;54.38;;;;;;;;;;5067234;28;20429;-80
2023/04/09 03:14:11;;;;;;;97.13;53.45;;;;;;;;;;5071105;28;20430;-80
2023/04/09 03:16:38;;;;;;;93.50;52.95;;;;;;;;;;5060949;28;20431;-82
2023/04/09 03:19:04;;;;;;;87.63;53.03;;;;;;;;;;5045427;28;20411;-81
2023/04/09 03:21:32;;;;;;;98.43;53.47;;;;;;;;;;5060517;28;20417;-81
2023/04/09 03:23:58;;;;;;;93.28;53.50;;;;;;;;;;5043748;28;20412;-80
2023/04/09 03:26:24;;;;;;;91.37;54.00;;;;;;;;;;5060647;28;20418;-81
2023/04/09 03:28:52;;;;;;;95.95;53.55;;;;;;;;;;5064543;28;20416;-82
2023/04/09 03:31:18;;;;;;;93.38;55.13;;;;;;;;;;5060826;28;20415;-81
2023/04/09 03:33:45;;;;;;;87.87;51.73;;;;;;;;;;5064582;28;20452;-81
2023/04/09 03:36:11;;;;;;;92.80;51.83;;;;;;;;;;5063459;28;20491;-81
2023/04/09 03:38:38;;;;;;;90.25;51.15;;;;;;;;;;5064087;28;20418;-80
2023/04/09 03:41:04;;;;;;;91.50;51.60;;;;;;;;;;5063087;28;20409;-79
2023/04/09 03:43:30;;;;;;;91.93;50.75;;;;;;;;;;5063206;28;20421;-80
2023/04/09 03:45:58;;;;;;;91.95;51.10;;;;;;;;;;5047925;28;20419;-80
2023/04/09 03:48:25;;;;;;;85.70;48.35;;;;;;;;;;5062370;28;20428;-79
2023/04/09 03:50:52;;;;;;;89.33;49.43;;;;;;;;;;5046840;28;20420;-79
2023/04/09 03:53:18;;;;;;;85.35;48.28;;;;;;;;;;5048080;28;20925;-81
2023/04/09 03:55:45;;;;;;;92.10;51.50;;;;;;;;;;5067003;28;20409;-81
2023/04/09 03:58:11;;;;;;;78.10;47.88;;;;;;;;;;5067102;28;20785;-81
2023/04/09 04:00:38;;;;;;;85.40;48.77;;;;;;;;;;5064813;28;20429;-81
2023/04/09 04:03:05;;;;;;;87.80;50.90;;;;;;;;;;5063672;28;20421;-80
2023/04/09 04:05:32;;;;;;;84.18;48.88;;;;;;;;;;5063425;28;20434;-80
2023/04/09 04:07:58;;;;;;;79.60;48.83;;;;;;;;;;5062135;28;20428;-80
2023/04/09 04:10:24;;;;;;;89.93;49.70;;;;;;;;;;5063999;28;20440;-80
2023/04/09 04:12:51;;;;;;;81.07;46.55;;;;;;;;;;5062391;28;20974;-81
2023/04/09 04:15:18;;;;;;;75.38;46.55;;;;;;;;;;5065922;28;20771;-80
2023/04/09 04:17:45;;;;;;;87.65;48.58;;;;;;;;;;5061110;28;20907;-82
2023/04/09 04:20:13;;;;;;;80.80;47.10;;;;;;;;;;5062834;28;20432;-81
2023/04/09 04:22:39;;;;;;;82.55;48.15;;;;;;;;;;5065425;28;20427;-81
2023/04/09 04:25:06;;;;;;;82.88;48.30;;;;;;;;;;5060367;28;20502;-81
2023/04/09 04:27:33;;;;;;;74.97;45.17;;;;;;;;;;5062357;28;20435;-82
2023/04/09 04:30:00;;;;;;;85.35;46.83;;;;;;;;;;5064347;28;20434;-81
2023/04/09 04:32:27;;;;;;;79.78;45.47;;;;;;;;;;5048141;28;20435;-81
2023/04/09 04:34:53;;;;;;;79.03;44.95;;;;;;;;;;5067533;28;20439;-81
2023/04/09 04:37:21;;;;;;;77.68;45.63;;;;;;;;;;5063846;28;20415;-81
2023/04/09 04:39:47;;;;;;;80.25;48.22;;;;;;;;;;5066128;28;20427;-80
2023/04/09 04:42:14;;;;;;;78.45;46.58;;;;;;;;;;5064725;28;20419;-80
2023/04/09 04:44:40;;;;;;;79.37;47.00;;;;;;;;;;5065364;28;20427;-80
2023/04/09 04:47:06;;;;;;;82.47;47.78;;;;;;;;;;5062875;28;20426;-80
2023/04/09 04:49:33;;;;;;;81.65;48.20;;;;;;;;;;5066203;28;20425;-80
2023/04/09 04:51:59;;;;;;;84.45;47.40;;;;;;;;;;5061144;28;20431;-80
2023/04/09 04:54:27;;;;;;;84.32;47.05;;;;;;;;;;5061171;28;20419;-80
2023/04/09 04:56:53;;;;;;;85.80;46.72;;;;;;;;;;5066085;28;20460;-80
2023/04/09 04:59:20;;;;;;;78.00;46.05;;;;;;;;;;5044676;28;20420;-81
2023/04/09 05:01:46;;;;;;;78.35;45.67;;;;;;;;;;5064450;28;20433;-81
2023/04/09 05:04:13;;;;;;;68.63;42.80;;;;;;;;;;5041603;28;20785;-80
2023/04/09 05:06:39;;;;;;;72.90;43.28;;;;;;;;;;5052299;28;20429;-80
2023/04/09 05:09:05;;;;;;;74.18;42.90;;;;;;;;;;5064296;28;20425;-85
2023/04/09 05:11:33;;;;;;;65.13;40.30;;;;;;;;;;5063660;28;20448;-79
2023/04/09 05:13:59;;;;;;;65.45;41.97;;;;;;;;;;5059718;28;20798;-81
2023/04/09 05:16:26;;;;;;;65.60;38.40;;;;;;;;;;5049586;28;20417;-82
2023/04/09 05:18:52;;;;;;;63.33;38.50;;;;;;;;;;5057179;28;20797;-82
2023/04/09 05:21:19;;;;;;;58.97;36.80;;;;;;;;;;5065528;28;20411;-80
2023/04/09 05:23:45;;;;;;;59.45;37.03;;;;;;;;;;5063895;28;20422;-80
2023/04/09 05:26:12;;;;;;;63.13;38.45;;;;;;;;;;5065744;28;20417;-80
2023/04/09 05:28:41;;;;;;;56.50;35.10;;;;;;;;;;5059761;28;20420;-82
2023/04/09 05:31:11;;;;;;;58.45;36.30;;;;;;;;;;5062967;28;20416;-80
2023/04/09 05:33:39;;;;;;;56.22;34.97;;;;;;;;;;5061824;28;20417;-82
2023/04/09 05:36:06;;;;;;;57.13;34.50;;;;;;;;;;5061251;28;20497;-82
2023/04/09 05:38:32;;;;;;;52.47;32.20;;;;;;;;;;5058282;28;20434;-81
2023/04/09 05:40:58;;;;;;;59.45;34.20;;;;;;;;;;5044731;28;20770;-81
2023/04/09 05:43:25;;;;;;;49.97;31.63;;;;;;;;;;5063979;28;20932;-81
2023/04/09 05:45:53;;;;;;;49.63;31.65;;;;;;;;;;5064615;28;20455;-81
2023/04/09 05:48:19;;;;;;;51.70;31.45;;;;;;;;;;5059603;28;20424;-82
2023/04/09 05:50:48;;;;;;;53.05;32.50;;;;;;;;;;5065555;28;20425;-79
2023/04/09 05:53:15;;;;;;;51.03;31.50;;;;;;;;;;5058877;28;21068;-81
2023/04/09 05:55:41;;;;;;;50.15;30.60;;;;;;;;;;5063774;28;20793;-81
2023/04/09 05:58:08;;;;;;;45.80;29.85;;;;;;;;;;5058835;28;20413;-81
2023/04/09 06:00:34;;;;;;;47.47;29.87;;;;;;;;;;5062259;28;20429;-81
2023/04/09 06:03:02;;;;;;;49.08;30.10;;;;;;;;;;5063616;28;20413;-81
2023/04/09 06:05:28;;;;;;;45.80;29.23;;;;;;;;;;5061516;28;20813;-80
2023/04/09 06:07:55;;;;;;;45.30;29.53;;;;;;;;;;5058736;28;20912;-81
2023/04/09 06:10:21;;;;;;;49.03;29.27;;;;;;;;;;5061096;28;20425;-81
2023/04/09 06:12:49;;;;;;;48.08;29.90;;;;;;;;;;5059389;28;20423;-81
2023/04/09 06:15:15;;;;;;;49.13;31.63;;;;;;;;;;5063500;28;20503;-81
2023/04/09 06:17:42;;;;;;;46.25;29.95;;;;;;;;;;5064702;28;20938;-81
2023/04/09 06:20:10;;;;;;;50.90;30.40;;;;;;;;;;5063310;28;20789;-81
2023/04/09 06:22:36;;;;;;;46.45;29.45;;;;;;;;;;5060241;28;20468;-81
2023/04/09 06:25:03;;;;;;;47.05;30.95;;;;;;;;;;5063007;28;20437;-81
2023/04/09 06:27:29;;;;;;;49.20;30.77;;;;;;;;;;5044569;28;20446;-81
2023/04/09 06:29:56;;;;;;;48.92;31.48;;;;;;;;;;5062893;28;20423;-82
2023/04/09 06:32:22;;;;;;;46.60;29.80;;;;;;;;;;5065390;28;20429;-81
2023/04/09 06:34:48;;;;;;;43.95;30.52;;;;;;;;;;5063763;28;20415;-81
2023/04/09 06:37:16;;;;;;;50.80;30.50;;;;;;;;;;5068465;28;20428;-81
2023/04/09 06:39:42;;;;;;;49.05;31.30;;;;;;;;;;5067108;28;20790;-81
2023/04/09 06:42:09;;;;;;;48.30;30.85;;;;;;;;;;5065248;28;20937;-81
2023/04/09 06:44:35;;;;;;;47.85;30.58;;;;;;;;;;5063335;28;20436;-81
2023/04/09 06:47:02;;;;;;;46.25;30.73;;;;;;;;;;5068719;28;20427;-81
2023/04/09 06:49:28;;;;;;;47.03;30.20;;;;;;;;;;5062743;28;20418;-81
2023/04/09 06:51:55;;;;;;;49.53;30.25;;;;;;;;;;5067809;28;20435;-81
2023/04/09 06:54:22;;;;;;;48.53;30.30;;;;;;;;;;5065044;28;20425;-81
2023/04/09 06:56:50;;;;;;;47.22;30.75;;;;;;;;;;5064773;28;20427;-81
2023/04/09 06:59:18;;;;;;;46.55;30.40;;;;;;;;;;5064175;28;20477;-81
2023/04/09 07:01:46;;;;;;;49.20;31.33;;;;;;;;;;5064282;28;20833;-81
2023/04/09 07:04:12;;;;;;;45.30;29.70;;;;;;;;;;5068510;28;20927;-82
2023/04/09 07:06:39;;;;;;;47.08;31.30;;;;;;;;;;5061223;28;20429;-81
2023/04/09 07:09:05;;;;;;;45.53;28.88;;;;;;;;;;5064586;28;20420;-81
2023/04/09 07:11:33;;;;;;;45.75;29.40;;;;;;;;;;5066632;28;20479;-81
2023/04/09 07:14:01;;;;;;;46.23;30.83;;;;;;;;;;5063003;28;20416;-86
2023/04/09 07:16:27;;;;;;;45.13;29.20;;;;;;;;;;5048892;28;20427;-81
2023/04/09 07:18:54;;;;;;;44.08;28.90;;;;;;;;;;5067698;28;20771;-82
2023/04/09 07:21:20;;;;;;;44.30;28.85;;;;;;;;;;5066038;28;20409;-81
2023/04/09 07:23:47;;;;;;;47.30;31.30;;;;;;;;;;5063026;28;20422;-82
2023/04/09 07:26:13;;;;;;;41.80;27.92;;;;;;;;;;5065392;28;20415;-81
2023/04/09 07:28:41;;;;;;;41.22;29.55;;;;;;;;;;5068408;28;20773;-82
2023/04/09 07:31:08;;;;;;;43.30;29.50;;;;;;;;;;5063132;28;20435;-81
2023/04/09 07:33:34;;;;;;;42.92;29.40;;;;;;;;;;5064664;28;20438;-81
2023/04/09 07:36:02;;;;;;;42.78;29.80;;;;;;;;;;5062542;28;20411;-81
2023/04/09 07:38:30;;;;;;;45.08;29.52;;;;;;;;;;5063672;28;20401;-81
2023/04/09 07:40:56;;;;;;;43.80;29.50;;;;;;;;;;5064518;28;20469;-81
2023/04/09 07:43:22;;;;;;;41.83;27.63;;;;;;;;;;5063840;28;20412;-83
2023/04/09 07:45:51;;;;;;;37.25;28.10;;;;;;;;;;5066976;28;20796;-81
2023/04/09 07:48:17;;;;;;;39.08;26.27;;;;;;;;;;5065807;28;20445;-82
2023/04/09 07:50:45;;;;;;;39.33;28.67;;;;;;;;;;5068919;28;20455;-81
2023/04/09 07:53:11;;;;;;;39.42;27.02;;;;;;;;;;5062418;28;20980;-81
2023/04/09 07:55:38;;;;;;;39.45;27.08;;;;;;;;;;5066481;28;20417;-82
2023/04/09 07:58:05;;;;;;;39.55;27.58;;;;;;;;;;5063749;28;20409;-81
2023/04/09 08:00:31;;;;;;;38.07;27.60;;;;;;;;;;5067698;28;20413;-81
2023/04/09 08:03:00;;;;;;;36.67;27.00;;;;;;;;;;5066291;28;20418;-81
2023/04/09 08:05:27;;;;;;;36.05;26.80;;;;;;;;;;5064039;28;20936;-81
2023/04/09 08:07:53;;;;;;;38.22;27.02;;;;;;;;;;5031941;28;20779;-82
2023/04/09 08:10:20;;;;;;;37.97;27.60;;;;;;;;;;5061609;28;20436;-82
2023/04/09 08:12:47;;;;;;;34.80;25.90;;;;;;;;;;5064189;28;20873;-82
2023/04/09 08:15:14;;;;;;;36.35;25.30;;;;;;;;;;5060159;28;20478;-82
2023/04/09 08:17:41;;;;;;;35.08;26.70;;;;;;;;;;5063913;28;20933;-81
2023/04/09 08:20:10;;;;;;;36.80;25.85;;;;;;;;;;5064876;28;20452;-82
2023/04/09 08:22:36;;;;;;;34.73;25.93;;;;;;;;;;5062913;28;20504;-81
2023/04/09 08:25:02;;;;;;;36.58;25.65;;;;;;;;;;5062466;28;20413;-82
2023/04/09 08:27:29;;;;;;;35.87;25.60;;;;;;;;;;5064911;28;20409;-82
2023/04/09 08:29:55;;;;;;;36.90;26.73;;;;;;;;;;5061453;28;20780;-82
2023/04/09 08:32:22;;;;;;;35.00;26.10;;;;;;;;;;5057976;28;20418;-82
2023/04/09 08:34:48;;;;;;;35.85;25.73;;;;;;;;;;5059963;28;20420;-81
2023/04/09 08:37:16;;;;;;;36.50;25.07;;;;;;;;;;5064387;28;20408;-81
2023/04/09 08:39:42;;;;;;;34.92;25.38;;;;;;;;;;5060264;28;20404;-82
2023/04/09 08:42:11;;;;;;;33.35;25.58;;;;;;;;;;5063378;28;20411;-81
2023/04/09 08:44:37;;;;;;;35.25;25.70;;;;;;;;;;5045176;28;20418;-81
2023/04/09 08:47:08;;;;;;;35.83;26.90;;;;;;;;;;5062991;28;20418;-81
2023/04/09 08:49:35;;;;;;;38.63;26.97;;;;;;;;;;5045264;28;20580;-82
2023/04/09 08:52:01;;;;;;;36.00;25.38;;;;;;;;;;5046539;28;21070;-81
2023/04/09 08:54:29;;;;;;;36.03;25.10;;;;;;;;;;5059063;28;20528;-79
2023/04/09 08:56:57;;;;;;;37.58;26.08;;;;;;;;;;5066781;28;20952;-79
2023/04/09 08:59:26;;;;;;;39.10;28.58;;;;;;;;;;5043586;28;20513;-79
2023/04/09 09:02:06;;;;;;;37.28;26.75;;;;;;;;;;5064720;28;20422;-81
2023/04/09 09:04:43;;;;;;;38.15;27.75;;;;;;;;;;5062812;28;20417;-80
2023/04/09 09:07:10;;;;;;;33.40;25.27;;;;;;;;;;5063859;28;20423;-80
2023/04/09 09:09:50;;;;;;;33.92;26.33;;;;;;;;;;5064337;28;20441;-81
2023/04/09 09:12:29;;;;;;;36.47;26.63;;;;;;;;;;5058363;28;20488;-79
2023/04/09 09:14:55;;;;;;;33.67;26.17;;;;;;;;;;5041915;28;20440;-81
2023/04/09 09:17:22;;;;;;;31.70;25.00;;;;;;;;;;5042078;28;20924;-80
2023/04/09 09:19:48;;;;;;;36.45;25.73;;;;;;;;;;5062184;28;20760;-79
2023/04/09 09:22:14;;;;;;;34.42;25.90;;;;;;;;;;5045662;28;20411;-80
2023/04/09 09:24:47;;;;;;;33.28;25.15;;;;;;;;;;5046761;28;20423;-79
2023/04/09 09:27:30;;;;;;;33.08;24.40;;;;;;;;;;5062706;28;20927;-79
2023/04/09 09:29:56;;;;;;;31.42;24.48;;;;;;;;;;5042033;28;20479;-79
2023/04/09 09:32:24;;;;;;;31.45;23.50;;;;;;;;;;5044347;28;20437;-80
2023/04/09 09:34:57;;;;;;;33.00;22.70;;;;;;;;;;5043661;28;20421;-79
2023/04/09 09:37:26;;;;;;;34.20;24.40;;;;;;;;;;5040242;28;20424;-79
2023/04/09 09:39:54;;;;;;;29.73;22.50;;;;;;;;;;5044958;28;20915;-80
2023/04/09 09:42:21;;;;;;;32.97;24.88;;;;;;;;;;5044563;28;20438;-79
2023/04/09 09:44:47;;;;;;;32.10;23.73;;;;;;;;;;5046287;28;20426;-78
2023/04/09 09:47:14;;;;;;;35.58;26.25;;;;;;;;;;5060517;28;20435;-79
2023/04/09 09:49:40;;;;;;;38.33;26.10;;;;;;;;;;5043170;28;20500;-79
2023/04/09 09:52:08;;;;;;;34.40;25.25;;;;;;;;;;5045290;28;20421;-79
2023/04/09 09:54:39;;;;;;;34.40;25.20;;;;;;;;;;5064208;28;20424;-78
2023/04/09 09:57:09;;;;;;;31.85;23.55;;;;;;;;;;5064599;28;20428;-79
2023/04/09 09:59:37;;;;;;;33.97;23.13;;;;;;;;;;5063528;28;20414;-79
2023/04/09 10:02:04;;;;;;;31.85;24.58;;;;;;;;;;5044077;28;20416;-78
2023/04/09 10:04:33;;;;;;;34.53;24.77;;;;;;;;;;5061537;28;20502;-79
2023/04/09 10:07:02;;;;;;;29.90;22.70;;;;;;;;;;5063928;28;20433;-79
2023/04/09 10:09:28;;;;;;;30.15;22.17;;;;;;;;;;5045531;28;20419;-79
2023/04/09 10:11:58;;;;;;;30.50;23.17;;;;;;;;;;5062097;28;20428;-79
2023/04/09 10:14:27;;;;;;;35.67;25.00;;;;;;;;;;5061191;28;20451;-81
2023/04/09 10:16:54;;;;;;;32.50;23.88;;;;;;;;;;5062101;28;20469;-80
2023/04/09 10:19:21;;;;;;;32.10;22.80;;;;;;;;;;5056626;28;20447;-80
2023/04/09 10:21:52;;;;;;;28.65;22.67;;;;;;;;;;5061767;28;20965;-80
2023/04/09 10:24:19;;;;;;;25.25;20.30;;;;;;;;;;5061568;28;20405;-80
2023/04/09 10:26:45;;;;;;;29.77;23.23;;;;;;;;;;5058784;28;20412;-80
2023/04/09 10:29:13;;;;;;;30.75;23.10;;;;;;;;;;5063346;28;20419;-80
2023/04/09 10:31:48;;;;;;;32.15;24.25;;;;;;;;;;5065583;28;20423;-80
2023/04/09 10:34:17;;;;;;;29.77;22.23;;;;;;;;;;5057910;28;20504;-80
2023/04/09 10:36:45;;;;;;;27.42;21.60;;;;;;;;;;5061397;28;20417;-80
2023/04/09 10:39:12;;;;;;;29.48;21.80;;;;;;;;;;5062716;28;20407;-80
2023/04/09 10:41:40;;;;;;;28.40;22.20;;;;;;;;;;5062939;28;20407;-80
2023/04/09 10:44:06;;;;;;;28.67;22.77;;;;;;;;;;5047432;28;21172;-80
2023/04/09 10:46:34;;;;;;;28.98;22.25;;;;;;;;;;5061532;28;20433;-80
2023/04/09 10:49:09;;;;;;;28.83;22.73;;;;;;;;;;5059839;28;20456;-80
2023/04/09 10:51:37;;;;;;;27.48;23.60;;;;;;;;;;5065182;28;20896;-80
2023/04/09 10:54:03;;;;;;;32.30;24.70;;;;;;;;;;5045519;28;20766;-80
2023/04/09 10:56:30;;;;;;;29.02;22.90;;;;;;;;;;5066047;28;20437;-80
2023/04/09 10:58:56;;;;;;;30.60;23.00;;;;;;;;;;5062963;28;20423;-80
2023/04/09 11:01:25;;;;;;;29.90;23.92;;;;;;;;;;5064710;28;20424;-80
2023/04/09 11:04:07;;;;;;;27.98;22.88;;;;;;;;;;5048993;28;20611;-80
2023/04/09 11:06:35;;;;;;;29.52;22.83;;;;;;;;;;5067527;28;20429;-80
2023/04/09 11:09:03;;;;;;;27.20;21.52;;;;;;;;;;5068017;28;20420;-80
2023/04/09 11:11:30;;;;;;;28.00;21.83;;;;;;;;;;5068438;28;20801;-81
2023/04/09 11:13:58;;;;;;;28.65;21.75;;;;;;;;;;5069677;28;20423;-80
2023/04/09 11:16:25;;;;;;;29.02;21.90;;;;;;;;;;5065487;28;20433;-80
2023/04/09 11:18:52;;;;;;;26.30;21.50;;;;;;;;;;5072305;28;20423;-80
2023/04/09 11:21:18;;;;;;;30.35;22.20;;;;;;;;;;5073526;28;20423;-80
2023/04/09 11:23:51;;;;;;;28.30;22.20;;;;;;;;;;5071647;28;20421;-80
2023/04/09 11:26:22;;;;;;;27.20;20.45;;;;;;;;;;5066202;28;20431;-79
2023/04/09 11:28:49;;;;;;;29.55;21.20;;;;;;;;;;5046307;28;20436;-80
2023/04/09 11:31:15;;;;;;;25.67;20.58;;;;;;;;;;5069433;28;20426;-80
2023/04/09 11:33:46;;;;;;;27.00;20.73;;;;;;;;;;5065171;28;20423;-80
2023/04/09 11:36:12;;;;;;;27.70;21.90;;;;;;;;;;5064755;28;20425;-79
2023/04/09 11:38:40;;;;;;;28.40;21.30;;;;;;;;;;5066726;28;20411;-80
2023/04/09 11:41:11;;;;;;;26.40;20.37;;;;;;;;;;5063385;28;20432;-79
2023/04/09 11:43:38;;;;;;;27.38;21.00;;;;;;;;;;5063333;28;20424;-79
2023/04/09 11:46:04;;;;;;;29.27;21.77;;;;;;;;;;5063258;28;20425;-80
2023/04/09 11:48:31;;;;;;;29.23;21.98;;;;;;;;;;5065839;28;20413;-79
2023/04/09 11:50:57;;;;;;;27.45;22.27;;;;;;;;;;5068090;28;20478;-79
2023/04/09 11:53:29;;;;;;;28.33;22.75;;;;;;;;;;5060656;28;20421;-79
2023/04/09 11:55:56;;;;;;;28.15;21.83;;;;;;;;;;5061726;28;20431;-80
2023/04/09 11:58:25;;;;;;;29.88;23.27;;;;;;;;;;5064683;28;20418;-79
2023/04/09 12:00:53;;;;;;;26.80;21.60;;;;;;;;;;5066970;28;20435;-79
2023/04/09 12:03:25;;;;;;;25.85;20.02;;;;;;;;;;5063682;28;20422;-79
2023/04/09 12:05:53;;;;;;;26.92;21.10;;;;;;;;;;5068857;28;20435;-79
2023/04/09 12:08:22;;;;;;;27.85;20.83;;;;;;;;;;5064022;28;20411;-79
2023/04/09 12:10:51;;;;;;;30.20;20.67;;;;;;;;;;5062948;28;20473;-79
2023/04/09 12:13:18;;;;;;;25.90;20.40;;;;;;;;;;5047781;28;20833;-80
2023/04/09 12:15:48;;;;;;;24.23;19.45;;;;;;;;;;5064991;28;20951;-80
2023/04/09 12:18:14;;;;;;;23.90;19.05;;;;;;;;;;5068186;28;20432;-80
2023/04/09 12:20:43;;;;;;;28.20;22.63;;;;;;;;;;5062766;28;20439;-79
2023/04/09 12:23:10;;;;;;;27.38;20.98;;;;;;;;;;5066864;28;20408;-79
2023/04/09 12:25:38;;;;;;;23.98;19.17;;;;;;;;;;5066812;28;20439;-79
2023/04/09 12:28:08;;;;;;;23.10;18.80;;;;;;;;;;5065404;28;20419;-79
2023/04/09 12:30:35;;;;;;;21.90;18.58;;;;;;;;;;5060240;28;20424;-79
2023/04/09 12:33:03;;;;;;;22.97;19.40;;;;;;;;;;5061300;28;20430;-79
2023/04/09 12:35:29;;;;;;;26.23;21.40;;;;;;;;;;5070634;28;20444;-79
2023/04/09 12:37:55;;;;;;;27.88;21.85;;;;;;;;;;5046572;28;20419;-79
2023/04/09 12:40:22;;;;;;;26.80;21.33;;;;;;;;;;5064293;28;20431;-80
2023/04/09 12:42:49;;;;;;;25.85;20.98;;;;;;;;;;5050412;28;20404;-79
2023/04/09 12:45:16;;;;;;;22.00;18.58;;;;;;;;;;5065737;28;20452;-79
2023/04/09 12:47:42;;;;;;;20.80;18.55;;;;;;;;;;5060188;28;20413;-79
2023/04/09 12:50:11;;;;;;;20.85;17.52;;;;;;;;;;5064996;28;20431;-79
2023/04/09 12:52:38;;;;;;;21.30;17.40;;;;;;;;;;5064024;28;20431;-79
2023/04/09 12:55:05;;;;;;;18.08;16.25;;;;;;;;;;5062564;28;20407;-79
2023/04/09 12:57:32;;;;;;;20.45;16.35;;;;;;;;;;5064792;28;20419;-80
2023/04/09 12:59:59;;;;;;;20.27;16.88;;;;;;;;;;5068357;28;20908;-79
2023/04/09 13:02:25;;;;;;;25.35;18.63;;;;;;;;;;5066641;28;20897;-79
2023/04/09 13:04:52;;;;;;;23.33;18.17;;;;;;;;;;5017437;28;20501;-80
2023/04/09 13:07:20;;;;;;;17.05;14.73;;;;;;;;;;5044107;28;20423;-79
2023/04/09 13:09:47;;;;;;;18.60;14.43;;;;;;;;;;5045678;28;20444;-79
2023/04/09 13:12:14;;;;;;;17.85;15.02;;;;;;;;;;5045350;28;20463;-79
2023/04/09 13:14:40;;;;;;;18.33;15.20;;;;;;;;;;5063405;28;20412;-79
2023/04/09 13:17:07;;;;;;;20.10;15.57;;;;;;;;;;5065613;28;20416;-79
2023/04/09 13:19:33;;;;;;;18.98;15.40;;;;;;;;;;5062069;28;20446;-79
2023/04/09 13:22:00;;;;;;;18.40;14.18;;;;;;;;;;5059321;28;20900;-79
2023/04/09 13:24:27;;;;;;;17.55;14.10;;;;;;;;;;5061951;28;20613;-79
2023/04/09 13:26:54;;;;;;;18.60;14.47;;;;;;;;;;5048640;28;20420;-79
2023/04/09 13:29:20;;;;;;;17.85;15.32;;;;;;;;;;5066723;28;20420;-79
2023/04/09 13:31:47;;;;;;;16.60;13.85;;;;;;;;;;5063805;28;20423;-79
2023/04/09 13:34:13;;;;;;;18.92;15.05;;;;;;;;;;5067853;28;20423;-79
2023/04/09 13:36:39;;;;;;;17.75;13.95;;;;;;;;;;5061791;28;20413;-79
2023/04/09 13:39:06;;;;;;;17.67;14.60;;;;;;;;;;5063561;28;20442;-79
2023/04/09 13:41:34;;;;;;;17.03;14.40;;;;;;;;;;5063593;28;20399;-79
2023/04/09 13:44:00;;;;;;;16.13;13.10;;;;;;;;;;5062045;28;20431;-79
2023/04/09 13:46:27;;;;;;;17.00;14.27;;;;;;;;;;5066855;28;20408;-79
2023/04/09 13:48:53;;;;;;;16.65;13.55;;;;;;;;;;5063098;28;20417;-79
2023/04/09 13:51:20;;;;;;;16.30;13.30;;;;;;;;;;5061753;28;20425;-79
2023/04/09 13:53:47;;;;;;;17.10;13.97;;;;;;;;;;5063206;28;20415;-79
2023/04/09 13:56:13;;;;;;;18.35;15.30;;;;;;;;;;5046915;28;20479;-79
2023/04/09 13:58:42;;;;;;;16.37;13.47;;;;;;;;;;5061501;28;20421;-78
2023/04/09 14:01:08;;;;;;;19.08;13.82;;;;;;;;;;5062682;28;20893;-79
2023/04/09 14:03:37;;;;;;;16.87;14.30;;;;;;;;;;5059364;28;20410;-79
2023/04/09 14:06:03;;;;;;;17.50;14.15;;;;;;;;;;5061459;28;20536;-79
2023/04/09 14:08:30;;;;;;;17.58;13.50;;;;;;;;;;5062790;28;20411;-79
2023/04/09 14:10:56;;;;;;;16.02;13.55;;;;;;;;;;5060149;28;20421;-79
2023/04/09 14:13:22;;;;;;;15.02;12.80;;;;;;;;;;5061354;28;20412;-79
2023/04/09 14:15:50;;;;;;;15.00;13.40;;;;;;;;;;5064556;28;20835;-79